Time;durP1;ratioP1;P1;durP2;ratioP2;P2;SDS_P1;SDS_P2;PMS_P1;PMS_P2;Temp;Humidity;BMP_temperature;BMP_pressure;BME280_temperature;BME280_humidity;BME280_pressure;Samples;Min_cycle;Max_cycle;Signal;HPM_P1;HPM_P2
2022/09/29 00:16:57;;;;;;;37.42;21.63;;;;;;;;;;5085097;28;20214;-94
2022/09/29 00:19:37;;;;;;;44.38;24.27;;;;;;;;;;5070668;28;20193;-93
2022/09/29 00:22:09;;;;;;;39.88;22.73;;;;;;;;;;5049696;28;20202;-92
2022/09/29 00:24:38;;;;;;;43.30;24.35;;;;;;;;;;5088917;28;20722;-93
2022/09/29 00:27:12;;;;;;;57.38;25.95;;;;;;;;;;5065488;28;20738;-93
2022/09/29 00:29:44;;;;;;;67.25;28.50;;;;;;;;;;5048672;28;20198;-94
2022/09/29 00:32:10;;;;;;;70.45;27.60;;;;;;;;;;5067663;28;20815;-93
2022/09/29 00:34:58;;;;;;;93.30;24.92;;;;;;;;;;5104271;28;20212;-93
2022/09/29 00:37:25;;;;;;;103.30;24.77;;;;;;;;;;5071954;28;20182;-94
2022/09/29 01:09:37;;;;;;;36.50;18.45;;;;;;;;;;5110608;28;20216;-94
2022/09/29 01:12:06;;;;;;;41.08;17.15;;;;;;;;;;5066711;28;20186;-94
2022/09/29 01:14:35;;;;;;;138.05;19.95;;;;;;;;;;5067039;28;20253;-94
2022/09/29 01:17:14;;;;;;;32.13;16.83;;;;;;;;;;5110722;28;20229;-93
2022/09/29 01:19:44;;;;;;;40.53;16.70;;;;;;;;;;5129367;28;20431;-93
2022/09/29 01:22:31;;;;;;;38.47;16.40;;;;;;;;;;5099245;28;20198;-94
2022/09/29 01:25:22;;;;;;;33.60;18.60;;;;;;;;;;5104755;28;20484;-95
2022/09/29 01:28:21;;;;;;;46.60;17.85;;;;;;;;;;5096823;28;20201;-94
2022/09/29 01:30:52;;;;;;;28.37;16.47;;;;;;;;;;5065943;28;20265;-94
2022/09/29 01:33:30;;;;;;;31.52;15.75;;;;;;;;;;5073918;28;20454;-93
2022/09/29 01:36:02;;;;;;;24.02;17.65;;;;;;;;;;5075186;28;20181;-94
2022/09/29 01:38:53;;;;;;;24.73;18.02;;;;;;;;;;5076432;28;20194;-94
2022/09/29 01:41:32;;;;;;;29.50;18.02;;;;;;;;;;5079971;28;20167;-93
2022/09/29 01:44:06;;;;;;;27.27;18.25;;;;;;;;;;5085942;28;20198;-94
2022/09/29 01:46:58;;;;;;;26.50;16.73;;;;;;;;;;5070025;28;20182;-94
2022/09/29 01:49:29;;;;;;;29.67;17.63;;;;;;;;;;5075875;28;20186;-94
2022/09/29 01:52:03;;;;;;;23.13;15.82;;;;;;;;;;5070923;28;20186;-94
2022/09/29 01:54:39;;;;;;;21.30;15.85;;;;;;;;;;5078024;28;20178;-93
2022/09/29 01:57:38;;;;;;;30.77;17.00;;;;;;;;;;5068265;28;20261;-94
2022/09/29 02:00:30;;;;;;;32.97;16.05;;;;;;;;;;5060742;28;20239;-93
2022/09/29 02:03:11;;;;;;;24.67;17.05;;;;;;;;;;5083404;28;20181;-94
2022/09/29 02:06:08;;;;;;;;;;;;;;;;;;;;;
2022/09/29 02:08:40;;;;;;;80.43;19.80;;;;;;;;;;5068801;28;20198;-94
2022/09/29 02:11:07;;;;;;;37.33;17.75;;;;;;;;;;5078664;28;20224;-91
2022/09/29 02:13:53;;;;;;;38.60;18.63;;;;;;;;;;5054730;28;20201;-92
2022/09/29 02:16:23;;;;;;;41.00;17.35;;;;;;;;;;5035182;28;20187;-91
2022/09/29 02:18:54;;;;;;;26.70;16.02;;;;;;;;;;5080915;28;20191;-89
2022/09/29 02:21:21;;;;;;;23.35;14.82;;;;;;;;;;5065414;28;20332;-90
2022/09/29 02:23:47;;;;;;;24.25;15.13;;;;;;;;;;5083169;28;20798;-89
2022/09/29 02:26:14;;;;;;;19.73;15.00;;;;;;;;;;5087103;28;20265;-89
2022/09/29 02:28:41;;;;;;;20.00;15.10;;;;;;;;;;5062715;28;20600;-91
2022/09/29 02:31:07;;;;;;;19.00;14.23;;;;;;;;;;5078109;28;20427;-91
2022/09/29 02:33:33;;;;;;;20.15;14.73;;;;;;;;;;5055659;28;20431;-91
2022/09/29 02:36:26;;;;;;;30.17;16.23;;;;;;;;;;5057048;28;20179;-91
2022/09/29 02:38:59;;;;;;;41.88;18.58;;;;;;;;;;5040838;28;20442;-91
2022/09/29 02:41:48;;;;;;;37.03;16.80;;;;;;;;;;5078021;28;20189;-92
2022/09/29 02:44:20;;;;;;;36.63;17.33;;;;;;;;;;5047912;28;20232;-92
2022/09/29 02:46:51;;;;;;;64.00;16.67;;;;;;;;;;5085117;28;20257;-91
2022/09/29 02:49:30;;;;;;;43.28;17.33;;;;;;;;;;5071263;28;20182;-90
2022/09/29 02:52:03;;;;;;;85.22;17.00;;;;;;;;;;5094065;28;20170;-91
2022/09/29 02:54:56;;;;;;;63.22;17.02;;;;;;;;;;5059389;28;20190;-93
2022/09/29 02:57:25;;;;;;;52.90;16.05;;;;;;;;;;5045984;28;20187;-92
2022/09/29 02:59:57;;;;;;;40.25;16.30;;;;;;;;;;5078453;28;20189;-92
2022/09/29 03:02:29;;;;;;;72.78;17.83;;;;;;;;;;5034632;28;20242;-90
2022/09/29 03:04:55;;;;;;;31.05;16.83;;;;;;;;;;5063579;28;20205;-90
2022/09/29 03:07:21;;;;;;;50.70;16.08;;;;;;;;;;5057082;28;20598;-92
2022/09/29 03:09:48;;;;;;;27.83;13.23;;;;;;;;;;5064066;28;20263;-91
2022/09/29 03:12:14;;;;;;;37.78;19.50;;;;;;;;;;5070893;28;20186;-92
2022/09/29 03:14:42;;;;;;;24.48;14.25;;;;;;;;;;5053994;28;20187;-91
2022/09/29 03:17:08;;;;;;;21.73;14.35;;;;;;;;;;5071301;28;20269;-92
2022/09/29 03:19:36;;;;;;;23.17;13.80;;;;;;;;;;5053277;28;20202;-92
2022/09/29 03:22:03;;;;;;;17.33;12.95;;;;;;;;;;5054974;28;20640;-92
2022/09/29 03:24:32;;;;;;;20.52;13.80;;;;;;;;;;5069650;28;20234;-93
2022/09/29 03:27:00;;;;;;;19.42;13.65;;;;;;;;;;5055224;28;20179;-91
2022/09/29 03:29:28;;;;;;;25.95;14.15;;;;;;;;;;5069910;28;20198;-92
2022/09/29 03:31:57;;;;;;;16.58;13.90;;;;;;;;;;5071795;28;20167;-92
2022/09/29 03:34:23;;;;;;;19.10;14.00;;;;;;;;;;5053447;28;20330;-90
2022/09/29 03:36:52;;;;;;;18.95;14.80;;;;;;;;;;5054957;28;20220;-93
2022/09/29 03:39:18;;;;;;;20.05;13.05;;;;;;;;;;5068560;28;20195;-93
2022/09/29 03:41:44;;;;;;;21.63;15.80;;;;;;;;;;5072360;28;20712;-92
2022/09/29 03:44:17;;;;;;;22.33;14.32;;;;;;;;;;5052322;28;20681;-91
2022/09/29 03:46:45;;;;;;;18.67;13.70;;;;;;;;;;5036543;28;20175;-91
2022/09/29 03:49:13;;;;;;;21.30;14.32;;;;;;;;;;5071163;28;20190;-92
2022/09/29 03:51:42;;;;;;;21.55;15.70;;;;;;;;;;5073179;28;20649;-90
2022/09/29 03:54:11;;;;;;;24.70;14.70;;;;;;;;;;5054406;28;20191;-92
2022/09/29 03:56:38;;;;;;;18.63;14.68;;;;;;;;;;5057424;28;20716;-91
2022/09/29 03:59:17;;;;;;;;;;;;;;;;;;;;;
2022/09/29 04:02:00;;;;;;;21.67;14.00;;;;;;;;;;5066351;28;20198;-90
2022/09/29 04:04:58;;;;;;;22.05;14.30;;;;;;;;;;5053757;28;20279;-91
2022/09/29 04:07:49;;;;;;;;;;;;;;;;;;;;;
2022/09/29 04:13:12;;;;;;;18.98;15.45;;;;;;;;;;5057957;28;20197;-91
2022/09/29 04:15:57;;;;;;;21.95;14.07;;;;;;;;;;5060896;28;20676;-91
2022/09/29 04:18:36;;;;;;;;;;;;;;;;;;;;;
2022/09/29 04:21:26;;;;;;;20.17;13.50;;;;;;;;;;5071711;28;20275;-91
2022/09/29 04:27:27;;;;;;;22.73;13.48;;;;;;;;;;5093202;28;20173;-90
2022/09/29 04:29:59;;;;;;;24.02;15.15;;;;;;;;;;5052998;28;20202;-90
2022/09/29 04:32:32;;;;;;;25.95;14.27;;;;;;;;;;5053334;28;20167;-90
2022/09/29 04:35:10;;;;;;;24.98;14.52;;;;;;;;;;5035969;28;20461;-90
2022/09/29 04:38:02;;;;;;;27.10;15.88;;;;;;;;;;5055114;28;20178;-90
2022/09/29 04:43:26;;;;;;;29.20;15.13;;;;;;;;;;5049051;28;20178;-90
2022/09/29 04:45:55;;;;;;;45.33;15.52;;;;;;;;;;5074330;28;20186;-90
2022/09/29 04:48:29;;;;;;;59.42;15.27;;;;;;;;;;5056663;28;20182;-92
2022/09/29 04:51:09;;;;;;;39.92;17.25;;;;;;;;;;5039034;28;20198;-92
2022/09/29 04:56:30;;;;;;;40.10;15.73;;;;;;;;;;5055612;28;20731;-89
2022/09/29 04:59:26;;;;;;;34.17;16.50;;;;;;;;;;5075312;28;20209;-90
2022/09/29 05:02:00;;;;;;;70.45;15.07;;;;;;;;;;4989953;28;20242;-91
2022/09/29 05:04:57;;;;;;;27.92;14.88;;;;;;;;;;5066975;28;20467;-90
2022/09/29 05:07:48;;;;;;;27.50;14.05;;;;;;;;;;5035795;28;20171;-89
2022/09/29 05:10:17;;;;;;;17.30;14.30;;;;;;;;;;5059363;28;20202;-91
2022/09/29 05:12:50;;;;;;;23.48;13.90;;;;;;;;;;5070581;28;20175;-89
2022/09/29 05:15:21;;;;;;;16.85;13.23;;;;;;;;;;5053775;28;20191;-91
2022/09/29 05:18:11;;;;;;;16.38;13.00;;;;;;;;;;5076797;28;20283;-91
2022/09/29 05:20:57;;;;;;;15.73;12.80;;;;;;;;;;5063862;28;20195;-91
2022/09/29 05:23:27;;;;;;;14.90;12.73;;;;;;;;;;5050796;28;20194;-91
2022/09/29 05:25:56;;;;;;;20.40;14.27;;;;;;;;;;5057980;28;20221;-91
2022/09/29 05:28:38;;;;;;;21.45;14.45;;;;;;;;;;5056901;28;20267;-91
2022/09/29 05:31:32;;;;;;;;;;;;;;;;;;;;;
2022/09/29 05:34:08;;;;;;;39.55;12.93;;;;;;;;;;5072850;28;20270;-90
2022/09/29 05:36:34;;;;;;;20.98;14.18;;;;;;;;;;5038821;28;20197;-89
2022/09/29 05:39:19;;;;;;;;;;;;;;;;;;;;;
2022/09/29 05:41:54;;;;;;;18.23;14.57;;;;;;;;;;5062920;28;20265;-90
2022/09/29 05:44:24;;;;;;;17.88;12.95;;;;;;;;;;5039624;28;20214;-89
2022/09/29 05:46:56;;;;;;;14.65;12.90;;;;;;;;;;5062863;28;20240;-92
2022/09/29 05:49:24;;;;;;;18.10;14.13;;;;;;;;;;5059464;28;20209;-89
2022/09/29 05:51:53;;;;;;;20.42;14.35;;;;;;;;;;5065657;28;20182;-89
2022/09/29 05:54:34;;;;;;;21.70;15.40;;;;;;;;;;5061927;28;20246;-91
2022/09/29 05:57:22;;;;;;;17.60;14.00;;;;;;;;;;5075988;28;20214;-91
2022/09/29 06:00:07;;;;;;;20.70;14.48;;;;;;;;;;5045588;28;20202;-89
2022/09/29 06:02:39;;;;;;;22.95;15.38;;;;;;;;;;5056045;28;20257;-90
2022/09/29 06:05:13;;;;;;;17.95;14.38;;;;;;;;;;5063171;28;20232;-90
2022/09/29 06:08:07;;;;;;;20.58;15.02;;;;;;;;;;5066741;28;20197;-90
2022/09/29 06:10:33;;;;;;;28.10;15.85;;;;;;;;;;5066737;28;20715;-90
2022/09/29 06:13:00;;;;;;;100.83;18.70;;;;;;;;;;5062836;28;20199;-90
2022/09/29 06:15:26;;;;;;;53.50;18.60;;;;;;;;;;5057996;28;20810;-89
2022/09/29 06:17:59;;;;;;;86.78;19.25;;;;;;;;;;5054185;28;20226;-90
2022/09/29 06:20:29;;;;;;;58.83;17.77;;;;;;;;;;4715369;28;10000453;-91
2022/09/29 06:22:57;;;;;;;42.90;14.50;;;;;;;;;;5043040;28;20186;-91
2022/09/29 06:25:23;;;;;;;36.25;15.65;;;;;;;;;;5055198;28;20283;-90
2022/09/29 06:27:52;;;;;;;23.57;14.17;;;;;;;;;;5057138;28;20201;-91
2022/09/29 06:30:18;;;;;;;25.13;15.48;;;;;;;;;;5077006;28;20441;-90
2022/09/29 06:32:44;;;;;;;21.53;14.47;;;;;;;;;;5068642;28;20202;-87
2022/09/29 06:37:55;;;;;;;24.80;16.92;;;;;;;;;;5081879;28;20403;-90
2022/09/29 06:40:23;;;;;;;22.30;14.80;;;;;;;;;;5066400;28;20191;-90
2022/09/29 06:42:51;;;;;;;19.03;11.60;;;;;;;;;;5079037;28;20178;-90
2022/09/29 06:45:18;;;;;;;44.00;27.63;;;;;;;;;;5047258;28;20491;-89
2022/09/29 06:47:44;;;;;;;13.47;11.50;;;;;;;;;;5058092;28;20429;-91
2022/09/29 06:50:10;;;;;;;11.13;10.13;;;;;;;;;;5071197;28;20531;-88
2022/09/29 06:52:39;;;;;;;10.40;9.50;;;;;;;;;;5072453;28;20468;-91
2022/09/29 06:55:08;;;;;;;9.33;8.67;;;;;;;;;;5068997;28;20463;-89
2022/09/29 06:57:36;;;;;;;9.37;8.70;;;;;;;;;;5050888;28;20417;-89
2022/09/29 07:00:13;;;;;;;9.87;9.17;;;;;;;;;;5054365;28;20687;-89
2022/09/29 07:38:40;;;;;;;9.27;8.57;;;;;;;;;;5098839;28;20488;-90
2022/09/29 07:41:13;;;;;;;9.57;8.83;;;;;;;;;;5087626;28;20428;-89
2022/09/29 07:46:32;;;;;;;9.17;8.57;;;;;;;;;;5420474;22;20487;-91
2022/09/29 07:48:58;;;;;;;8.20;7.80;;;;;;;;;;5075303;28;20183;-90
2022/09/29 07:51:27;;;;;;;7.90;7.60;;;;;;;;;;5106188;28;20450;-91
2022/09/29 07:54:02;;;;;;;9.00;8.43;;;;;;;;;;5107904;28;20419;-91
2022/09/29 07:56:29;;;;;;;9.50;8.67;;;;;;;;;;5083359;28;20508;-90
2022/09/29 07:59:05;;;;;;;;;;;;;;;;;;;;;
2022/09/29 08:01:34;;;;;;;8.80;8.10;;;;;;;;;;5058589;28;20444;-90
2022/09/29 08:04:03;;;;;;;7.57;7.23;;;;;;;;;;5044190;28;20465;-89
2022/09/29 08:06:32;;;;;;;8.00;7.37;;;;;;;;;;5052963;28;20452;-89
2022/09/29 08:09:00;;;;;;;7.90;7.30;;;;;;;;;;5077653;28;20437;-91
2022/09/29 08:11:27;;;;;;;7.43;7.10;;;;;;;;;;5036306;28;20512;-88
2022/09/29 08:17:00;;;;;;;7.40;6.90;;;;;;;;;;5005063;28;20672;-89
2022/09/29 08:19:27;;;;;;;7.80;7.20;;;;;;;;;;5067300;28;20427;-87
2022/09/29 08:21:56;;;;;;;8.40;7.33;;;;;;;;;;5038917;28;20481;-91
2022/09/29 08:24:41;;;;;;;;;;;;;;;;;;;;;
2022/09/29 08:36:03;;;;;;;7.00;6.50;;;;;;;;;;5082688;28;20878;-85
2022/09/29 08:38:30;;;;;;;7.60;7.20;;;;;;;;;;5054438;28;20452;-89
2022/09/29 08:40:59;;;;;;;6.17;5.83;;;;;;;;;;5062462;28;20440;-90
2022/09/29 08:43:32;;;;;;;6.80;6.50;;;;;;;;;;5079857;28;20783;-88
2022/09/29 08:46:02;;;;;;;6.20;5.73;;;;;;;;;;5072598;28;20447;-89
2022/09/29 08:48:31;;;;;;;6.90;6.20;;;;;;;;;;5076981;28;21118;-88
2022/09/29 08:50:58;;;;;;;6.90;6.43;;;;;;;;;;5085552;28;20424;-88
2022/09/29 08:53:31;;;;;;;9.53;7.90;;;;;;;;;;5088759;28;20428;-88
2022/09/29 08:56:00;;;;;;;6.40;6.17;;;;;;;;;;5082656;28;20440;-89
2022/09/29 08:58:28;;;;;;;6.43;6.00;;;;;;;;;;5072238;28;20515;-88
2022/09/29 09:01:17;;;;;;;7.47;6.60;;;;;;;;;;5074088;28;20444;-89
2022/09/29 09:03:58;;;;;;;6.10;5.80;;;;;;;;;;5065402;28;20769;-88
2022/09/29 09:06:37;;;;;;;6.87;6.47;;;;;;;;;;5047223;28;20440;-89
2022/09/29 09:09:21;;;;;;;6.50;6.00;;;;;;;;;;5057140;28;20451;-89
2022/09/29 09:11:51;;;;;;;6.27;5.77;;;;;;;;;;5037460;28;20453;-90
2022/09/29 09:14:55;;;;;;;6.00;5.57;;;;;;;;;;5053270;28;20895;-90
2022/09/29 09:17:40;;;;;;;5.03;4.90;;;;;;;;;;5010596;28;20431;-92
2022/09/29 09:20:18;;;;;;;5.30;5.20;;;;;;;;;;5012277;28;20470;-91
2022/09/29 09:22:44;;;;;;;6.57;5.13;;;;;;;;;;5059651;28;20517;-92
2022/09/29 09:25:21;;;;;;;5.70;5.40;;;;;;;;;;5058689;28;20206;-90
2022/09/29 09:27:53;;;;;;;5.10;4.97;;;;;;;;;;5072628;28;20524;-92
2022/09/29 09:30:20;;;;;;;7.10;6.80;;;;;;;;;;5055489;28;20459;-93
2022/09/29 09:32:53;;;;;;;5.50;5.20;;;;;;;;;;5045284;28;20464;-88
2022/09/29 09:35:27;;;;;;;6.13;5.83;;;;;;;;;;5024098;28;20435;-91
2022/09/29 09:37:53;;;;;;;5.50;5.30;;;;;;;;;;4678011;28;10000781;-92
2022/09/29 09:40:23;;;;;;;5.77;5.37;;;;;;;;;;5028802;28;20452;-92
2022/09/29 09:43:13;;;;;;;5.53;5.33;;;;;;;;;;5033650;28;20433;-90
2022/09/29 09:49:04;;;;;;;6.50;6.13;;;;;;;;;;5029811;28;20430;-91
2022/09/29 09:51:46;;;;;;;5.97;5.70;;;;;;;;;;4674623;28;9999981;-88
2022/09/29 09:54:28;;;;;;;5.47;5.30;;;;;;;;;;5039503;28;20210;-88
2022/09/29 09:57:17;;;;;;;6.27;5.90;;;;;;;;;;5014743;28;20464;-91
2022/09/29 09:59:52;;;;;;;5.43;5.03;;;;;;;;;;5034905;28;20441;-90
2022/09/29 10:02:20;;;;;;;5.27;5.13;;;;;;;;;;5033548;28;20441;-95
2022/09/29 10:04:55;;;;;;;5.30;5.00;;;;;;;;;;5041558;28;20469;-91
2022/09/29 10:07:23;;;;;;;6.30;5.73;;;;;;;;;;5038960;28;20463;-92
2022/09/29 10:09:49;;;;;;;5.03;4.90;;;;;;;;;;5039290;28;20559;-91
2022/09/29 10:12:23;;;;;;;5.43;5.30;;;;;;;;;;5047766;28;20454;-91
2022/09/29 10:14:57;;;;;;;4.97;4.77;;;;;;;;;;5038170;28;20434;-93
2022/09/29 10:17:30;;;;;;;5.03;4.73;;;;;;;;;;5041802;28;20523;-90
2022/09/29 10:20:12;;;;;;;7.27;4.93;;;;;;;;;;5036853;28;20880;-93
2022/09/29 10:22:38;;;;;;;4.83;4.63;;;;;;;;;;5038567;28;20425;-90
2022/09/29 10:25:23;;;;;;;5.37;5.20;;;;;;;;;;5042566;28;20464;-94
2022/09/29 10:27:54;;;;;;;3.63;3.50;;;;;;;;;;5029685;28;20492;-90
2022/09/29 10:30:32;;;;;;;3.50;3.50;;;;;;;;;;5032194;28;20578;-93
2022/09/29 10:33:00;;;;;;;3.90;3.80;;;;;;;;;;5059003;28;20497;-91
2022/09/29 11:04:06;;;;;;;3.13;3.13;;;;;;;;;;5069588;28;20489;-91
2022/09/29 11:06:40;;;;;;;3.20;3.03;;;;;;;;;;5037321;28;20426;-90
2022/09/29 11:09:28;;;;;;;3.40;3.30;;;;;;;;;;5028825;28;20452;-95
2022/09/29 11:15:55;;;;;;;3.67;3.50;;;;;;;;;;5063420;28;20468;-94
2022/09/29 11:18:56;;;;;;;4.83;4.53;;;;;;;;;;5282237;23;20472;-92
2022/09/29 11:27:20;;;;;;;3.40;3.30;;;;;;;;;;5085221;28;20443;-94
2022/09/29 11:29:46;;;;;;;2.73;2.73;;;;;;;;;;5087297;23;20429;-91
2022/09/29 11:35:48;;;;;;;3.60;3.47;;;;;;;;;;5013358;28;20433;-92
2022/09/29 11:46:08;;;;;;;3.53;3.37;;;;;;;;;;3663375;22;21429;-93
2022/09/29 11:54:38;;;;;;;2.97;2.87;;;;;;;;;;5546253;22;20453;-90
2022/09/29 12:05:37;;;;;;;3.80;3.50;;;;;;;;;;5448263;22;20471;-94
2022/09/29 12:08:28;;;;;;;2.80;2.70;;;;;;;;;;5098631;28;20502;-90
2022/09/29 12:11:23;;;;;;;3.30;3.20;;;;;;;;;;5067232;28;20421;-91
2022/09/29 12:13:59;;;;;;;3.67;3.50;;;;;;;;;;5083582;28;20792;-95
2022/09/29 12:16:38;;;;;;;2.60;2.50;;;;;;;;;;5089376;28;20477;-91
2022/09/29 12:19:15;;;;;;;3.87;3.67;;;;;;;;;;5076614;28;20502;-96
2022/09/29 12:21:46;;;;;;;2.93;2.87;;;;;;;;;;5089375;28;20665;-95
2022/09/29 12:40:04;;;;;;;3.20;3.10;;;;;;;;;;5066579;28;20490;-88
2022/09/29 12:43:07;;;;;;;3.23;3.03;;;;;;;;;;5045627;28;20437;-91
2022/09/29 12:45:51;;;;;;;2.80;2.59;;;;;;;;;;4995654;28;10001182;-91
2022/09/29 12:48:25;;;;;;;3.63;3.43;;;;;;;;;;5032696;28;20464;-92
2022/09/29 12:51:10;;;;;;;2.57;2.40;;;;;;;;;;5034759;28;20475;-93
2022/09/29 12:53:49;;;;;;;2.87;2.87;;;;;;;;;;5052393;28;20421;-88
2022/09/29 12:56:20;;;;;;;3.27;3.07;;;;;;;;;;5034583;28;20529;-93
2022/09/29 12:59:03;;;;;;;9.70;3.83;;;;;;;;;;5044094;28;20472;-93
2022/09/29 13:01:30;;;;;;;3.03;2.77;;;;;;;;;;5025517;28;20524;-89
2022/09/29 13:04:16;;;;;;;2.77;2.63;;;;;;;;;;5041915;28;20447;-92
2022/09/29 13:10:19;;;;;;;2.70;2.60;;;;;;;;;;4944475;28;20442;-90
2022/09/29 13:13:03;;;;;;;3.20;3.00;;;;;;;;;;5024149;28;20448;-90
2022/09/29 13:15:35;;;;;;;2.53;2.53;;;;;;;;;;5009699;28;20988;-92
2022/09/29 13:18:04;;;;;;;3.77;3.47;;;;;;;;;;5035190;28;20399;-91
2022/09/29 13:20:41;;;;;;;3.13;3.13;;;;;;;;;;5041024;28;20459;-88
2022/09/29 13:23:19;;;;;;;2.83;2.83;;;;;;;;;;5016375;28;20434;-90
2022/09/29 13:26:07;;;;;;;3.10;3.00;;;;;;;;;;5022116;28;20519;-90
2022/09/29 13:28:40;;;;;;;3.60;3.30;;;;;;;;;;5004700;28;20476;-91
2022/09/29 13:31:14;;;;;;;2.60;2.40;;;;;;;;;;5038349;28;20494;-92
2022/09/29 13:33:42;;;;;;;6.33;2.30;;;;;;;;;;5001455;28;20439;-90
2022/09/29 13:36:34;;;;;;;1.93;1.83;;;;;;;;;;5018223;28;20440;-92
2022/09/29 13:39:26;;;;;;;2.50;2.50;;;;;;;;;;5062443;28;20469;-91
2022/09/29 13:41:54;;;;;;;2.83;2.43;;;;;;;;;;5030881;28;20445;-92
2022/09/29 13:44:22;;;;;;;2.40;2.27;;;;;;;;;;5021272;28;20467;-92
2022/09/29 13:47:12;;;;;;;2.77;2.77;;;;;;;;;;5046166;28;20430;-94
2022/09/29 13:49:45;;;;;;;2.30;2.30;;;;;;;;;;5039418;28;20445;-92
2022/09/29 13:52:11;;;;;;;3.10;2.43;;;;;;;;;;5028934;28;20447;-89
2022/09/29 13:54:39;;;;;;;2.70;2.63;;;;;;;;;;5046502;28;20484;-91
2022/09/29 13:57:21;;;;;;;3.00;2.80;;;;;;;;;;5029519;28;20426;-93
2022/09/29 13:59:56;;;;;;;3.40;3.10;;;;;;;;;;5035846;28;20411;-92
2022/09/29 14:02:34;;;;;;;3.17;2.90;;;;;;;;;;5005663;28;20825;-90
2022/09/29 14:05:29;;;;;;;2.23;2.23;;;;;;;;;;5053173;28;20453;-89
2022/09/29 14:07:59;;;;;;;3.23;3.20;;;;;;;;;;5017805;28;20506;-93
2022/09/29 14:18:38;;;;;;;3.33;2.80;;;;;;;;;;5052580;28;21023;-92
2022/09/29 14:21:11;;;;;;;4.33;2.73;;;;;;;;;;5098174;23;20500;-92
2022/09/29 14:23:48;;;;;;;2.17;1.97;;;;;;;;;;5043154;28;20656;-89
2022/09/29 14:26:33;;;;;;;1.80;1.80;;;;;;;;;;5040009;28;20443;-87
2022/09/29 14:29:02;;;;;;;1.57;1.57;;;;;;;;;;5047574;28;20425;-86
2022/09/29 14:31:31;;;;;;;3.30;2.80;;;;;;;;;;5067922;28;20511;-90
2022/09/29 14:34:05;;;;;;;2.93;2.83;;;;;;;;;;5069833;28;20409;-90
2022/09/29 14:36:34;;;;;;;6.13;2.70;;;;;;;;;;5027416;28;20436;-90
2022/09/29 14:39:00;;;;;;;2.57;2.30;;;;;;;;;;5044452;28;20441;-91
2022/09/29 14:41:51;;;;;;;3.07;2.87;;;;;;;;;;5066962;28;20420;-91
2022/09/29 14:44:26;;;;;;;2.67;2.47;;;;;;;;;;5044720;28;20555;-92
2022/09/29 14:53:07;;;;;;;3.10;2.57;;;;;;;;;;5038943;28;20414;-92
2022/09/29 14:55:33;;;;;;;2.50;2.50;;;;;;;;;;5046485;28;20444;-93
2022/09/29 14:58:16;;;;;;;2.80;2.60;;;;;;;;;;5080683;28;21036;-89
2022/09/29 15:00:48;;;;;;;3.27;3.10;;;;;;;;;;5047380;28;20442;-90
2022/09/29 15:09:39;;;;;;;3.77;3.17;;;;;;;;;;5084787;28;20532;-90
2022/09/29 15:12:25;;;;;;;3.60;3.40;;;;;;;;;;4981623;28;20491;-93
2022/09/29 15:15:19;;;;;;;3.90;3.20;;;;;;;;;;5075544;22;20532;-91
2022/09/29 15:17:54;;;;;;;4.10;2.90;;;;;;;;;;5098967;28;20412;-92
2022/09/29 15:20:31;;;;;;;3.63;3.43;;;;;;;;;;5070206;28;20457;-93
2022/09/29 15:23:03;;;;;;;3.43;3.23;;;;;;;;;;5088986;28;20532;-89
2022/09/29 15:25:31;;;;;;;5.33;4.93;;;;;;;;;;5070712;28;20472;-91
2022/09/29 15:28:17;;;;;;;3.03;2.93;;;;;;;;;;5070551;28;20539;-90
2022/09/29 15:30:54;;;;;;;;;;;;;;;;;;;;;
2022/09/29 15:36:53;;;;;;;2.60;2.50;;;;;;;;;;5349989;23;20568;-92
2022/09/29 15:39:32;;;;;;;5.03;3.10;;;;;;;;;;5109290;28;20407;-89
2022/09/29 15:42:14;;;;;;;3.00;2.80;;;;;;;;;;5080738;28;20432;-90
2022/09/29 15:45:09;;;;;;;3.50;3.17;;;;;;;;;;5072316;28;20507;-91
2022/09/29 15:47:45;;;;;;;2.90;2.80;;;;;;;;;;5078124;28;20473;-89
2022/09/29 15:50:24;;;;;;;3.43;3.20;;;;;;;;;;5070977;28;20416;-90
2022/09/29 15:52:55;;;;;;;3.00;2.90;;;;;;;;;;5089883;28;20417;-91
2022/09/29 15:58:58;;;;;;;3.60;3.40;;;;;;;;;;5074893;28;20541;-90
2022/09/29 16:01:27;;;;;;;3.30;3.20;;;;;;;;;;5089519;23;20499;-90
2022/09/29 16:04:18;;;;;;;4.00;3.80;;;;;;;;;;5073345;28;20438;-88
2022/09/29 16:06:51;;;;;;;5.83;3.30;;;;;;;;;;5078296;28;20405;-88
2022/09/29 16:12:26;;;;;;;4.90;4.57;;;;;;;;;;5081167;26;20894;-90
2022/09/29 16:15:03;;;;;;;3.50;3.23;;;;;;;;;;5081964;23;20476;-92
2022/09/29 16:17:41;;;;;;;4.77;2.60;;;;;;;;;;5278921;22;20538;-91
2022/09/29 16:20:18;;;;;;;6.07;2.57;;;;;;;;;;5075622;28;20444;-89
2022/09/29 16:23:06;;;;;;;2.87;2.67;;;;;;;;;;5094934;28;20425;-89
2022/09/29 16:28:42;;;;;;;3.70;2.50;;;;;;;;;;5011516;28;20452;-88
2022/09/29 16:31:38;;;;;;;2.83;2.50;;;;;;;;;;4748656;23;10002228;-90
2022/09/29 16:40:26;;;;;;;5.20;4.70;;;;;;;;;;5069624;28;20498;-90
2022/09/29 16:43:00;;;;;;;5.33;3.03;;;;;;;;;;5093336;28;20408;-89
2022/09/29 16:53:29;;;;;;;3.20;3.00;;;;;;;;;;3326039;22;20918;31
2022/09/29 16:58:48;;;;;;;2.97;2.80;;;;;;;;;;5048267;22;20485;-90
2022/09/29 19:22:43;;;;;;;4.40;4.03;;;;;;;;;;5098171;28;20447;-91
2022/09/29 19:28:13;;;;;;;3.60;3.50;;;;;;;;;;5080293;28;21069;-94
2022/09/29 19:31:00;;;;;;;;;;;;;;;;;;;;;
2022/09/29 19:33:56;;;;;;;5.00;4.47;;;;;;;;;;5098257;28;20515;-92
2022/09/29 19:36:24;;;;;;;4.47;4.17;;;;;;;;;;5066095;28;20436;-92
2022/09/29 19:42:41;;;;;;;;;;;;;;;;;;;;;
2022/09/29 19:45:11;;;;;;;4.15;4.00;;;;;;;;;;5101219;28;20558;-91
2022/09/29 19:47:59;;;;;;;;;;;;;;;;;;;;;
2022/09/29 19:54:09;;;;;;;5.07;4.27;;;;;;;;;;5097744;28;20450;-90
2022/09/29 19:59:43;;;;;;;5.30;4.87;;;;;;;;;;5098276;28;20439;-90
2022/09/29 20:02:42;;;;;;;;;;;;;;;;;;;;;
2022/09/29 20:05:09;;;;;;;13.27;6.73;;;;;;;;;;5060944;28;20584;-90
2022/09/29 20:11:03;;;;;;;8.95;8.05;;;;;;;;;;5051025;28;20505;-93
2022/09/29 20:13:29;;;;;;;13.05;8.15;;;;;;;;;;5064368;28;20200;-90
2022/09/29 20:16:09;;;;;;;7.97;6.80;;;;;;;;;;5066972;28;20190;-91
2022/09/29 20:18:39;;;;;;;8.03;7.20;;;;;;;;;;5085428;28;20463;-92
2022/09/29 20:21:14;;;;;;;7.23;6.77;;;;;;;;;;5056087;28;20515;-89
2022/09/29 20:23:52;;;;;;;7.70;7.10;;;;;;;;;;5049827;28;20455;-92
2022/09/29 20:29:37;;;;;;;7.00;6.60;;;;;;;;;;4991390;28;20513;-91
